05:26
Airports
Links
Donate
Help keep this website running!
PayPal
Bitcoin
METAR
LFPG 280500Z 26008KT 9999 BKN009 SCT017 17/15 Q0999
Current Weather Conditions at LFPG
IFR 05:00:00 28-06-17
Altimeter:29.50 hg
Temp:17.0°c 63°f
Dew point:15.0°c 59°f
Wind:8 knots, 9.2 mph, 4 m/s, from 260°
Visibility:6.21 statute miles
1700(SCT) Scattered
900(BKN) Broken
Past METAR reports
IFR 04:30:00 28-06-17
Altimeter:29.50 hg
Temp:17.0°c 63°f
Dew point:15.0°c 59°f
Wind:8 knots, 9.2 mph, 4 m/s, from 270°
Visibility:6.21 statute miles
800(BKN) Broken
LFPG 280430Z 27008KT 9999 BKN008 17/15 Q0999
IFR 04:00:00 28-06-17
Altimeter:29.50 hg
Temp:17.0°c 63°f
Dew point:15.0°c 59°f
Wind:9 knots, 10.4 mph, 5 m/s, from 260°
Visibility:6.21 statute miles
800(BKN) Broken
No significant weather changes expected within 2 hours.
LFPG 280400Z 26009KT 9999 BKN008 17/15 Q0999 NOSIG
IFR 03:30:00 28-06-17
Altimeter:29.50 hg
Temp:17.0°c 63°f
Dew point:15.0°c 59°f
Wind:9 knots, 10.4 mph, 5 m/s, from 260°
Visibility:6.21 statute miles
600(BKN) Broken
No significant weather changes expected within 2 hours.
LFPG 280330Z 26009KT 220V280 9999 BKN006 17/15 Q0999 NOSIG
IFR 03:00:00 28-06-17
Altimeter:29.50 hg
Temp:17.0°c 63°f
Dew point:15.0°c 59°f
Wind:8 knots, 9.2 mph, 4 m/s, from 270°
Visibility:6.21 statute miles
600(BKN) Broken
No significant weather changes expected within 2 hours.
LFPG 280300Z 27008KT 9999 BKN006 17/15 Q0999 NOSIG
IFR 02:30:00 28-06-17
Altimeter:29.50 hg
Temp:17.0°c 63°f
Dew point:15.0°c 59°f
Wind:9 knots, 10.4 mph, 5 m/s, from 280°
Visibility:6.21 statute miles
700(BKN) Broken
No significant weather changes expected within 2 hours.
LFPG 280230Z 28009KT 9999 BKN007 17/15 Q0999 NOSIG
IFR 02:00:00 28-06-17
Altimeter:29.50 hg
Temp:17.0°c 63°f
Dew point:16.0°c 61°f
Wind:9 knots, 10.4 mph, 5 m/s, from 260°
Visibility:6.21 statute miles
600(BKN) Broken
No significant weather changes expected within 2 hours.
LFPG 280200Z 26009KT 9999 BKN006 17/16 Q0999 NOSIG
TAF
TAF LFPG 280500Z 2806/2912 25008KT 9999 BKN008 BECMG 2807/2810 SCT015 SCT025TCU PROB40 TEMPO 2813/2818 25012G25KT 2000 -TSRA SCT030CB BECMG 2821/2823 NSC PROB30 TEMPO 2906/2908 BKN009 BECMG 2908/2910 SCT025TCU SCT030 TX22/2812Z TN14/2905Z
Forecast at LFPG
06:00 28-06-17 to 07:00 28-06-17
Wind:8 Knots from 250°
Visibility:6.21 statute miles
800BKN Broken
BECMG 07:00 28-06-17 to 21:00 28-06-17
Wind:8 Knots from 250°
Visibility:6.21 statute miles
1500SCT Scattered
2500SCT Scattered
TEMPO 13:00 28-06-17 to 18:00 28-06-17
40% -TSRA
Wind:12 Knots from 250°
Visibility:1.24 statute miles
3000SCT Scattered
BECMG 21:00 28-06-17 to 08:00 29-06-17
Wind:8 Knots from 250°
Visibility:6.21 statute miles
NSC
TEMPO 06:00 29-06-17 to 08:00 29-06-17
30%
900BKN Broken
BECMG 08:00 29-06-17 to 12:00 29-06-17
Wind:8 Knots from 250°
Visibility:6.21 statute miles
2500SCT Scattered
3000SCT Scattered